createdAt,value
2023-01-29T00:01:56.724Z,25.45
2023-01-29T00:04:26.303Z,28.15
2023-01-29T00:06:54.188Z,26.63
2023-01-29T00:09:22.432Z,27.67
2023-01-29T00:11:50.222Z,25.85
2023-01-29T00:14:18.052Z,24.90
2023-01-29T00:16:45.955Z,24.70
2023-01-29T00:19:13.736Z,26.02
2023-01-29T00:21:43.189Z,28.17
2023-01-29T00:24:11.131Z,25.25
2023-01-29T00:26:39.256Z,26.00
2023-01-29T00:29:07.543Z,27.58
2023-01-29T00:31:35.697Z,28.05
2023-01-29T00:34:03.526Z,28.48
2023-01-29T00:36:31.367Z,26.42
2023-01-29T00:39:02.535Z,27.33
2023-01-29T00:41:49.834Z,28.60
2023-01-29T00:44:35.568Z,26.20
2023-01-29T00:47:04.190Z,26.67
2023-01-29T00:49:32.076Z,27.65
2023-01-29T00:52:26.039Z,28.58
2023-01-29T00:54:57.063Z,28.60
2023-01-29T00:57:26.756Z,27.30
2023-01-29T00:59:54.844Z,27.38
2023-01-29T01:02:40.815Z,29.98
2023-01-29T01:05:17.940Z,27.15
2023-01-29T01:10:24.078Z,28.95
2023-01-29T01:12:56.077Z,26.05
2023-01-29T01:15:24.855Z,25.67
2023-01-29T01:17:54.633Z,27.38
2023-01-29T01:20:22.872Z,26.02
2023-01-29T01:22:52.376Z,27.33
2023-01-29T01:25:21.899Z,26.95
2023-01-29T01:27:53.833Z,27.60
2023-01-29T01:30:21.958Z,25.42
2023-01-29T01:32:49.924Z,29.45
2023-01-29T01:35:17.814Z,27.65
2023-01-29T01:37:45.650Z,26.60
2023-01-29T01:40:18.365Z,26.33
2023-01-29T01:42:49.817Z,25.05
2023-01-29T01:45:21.080Z,26.45
2023-01-29T01:47:52.578Z,24.60
2023-01-29T01:50:25.440Z,27.65
2023-01-29T01:52:56.665Z,25.50
2023-01-29T01:55:27.626Z,26.45
2023-01-29T01:58:01.532Z,24.95
2023-01-29T02:00:29.608Z,23.67
2023-01-29T02:03:14.847Z,27.17
2023-01-29T02:06:00.441Z,27.38
2023-01-29T02:08:54.254Z,26.20
2023-01-29T02:11:22.256Z,27.98
2023-01-29T02:13:53.688Z,25.50
2023-01-29T02:16:27.096Z,26.17
2023-01-29T02:18:57.050Z,27.58
2023-01-29T02:21:47.734Z,28.90
2023-01-29T02:24:54.470Z,24.23
2023-01-29T02:27:34.495Z,27.42
2023-01-29T02:30:10.561Z,28.17
2023-01-29T02:32:54.203Z,26.52
2023-01-29T02:35:31.916Z,26.90
2023-01-29T02:38:09.930Z,25.75
2023-01-29T02:40:44.064Z,25.30
2023-01-29T02:43:24.526Z,27.08
2023-01-29T02:46:02.318Z,25.85
2023-01-29T02:48:41.775Z,28.63
2023-01-29T02:51:14.745Z,28.48
2023-01-29T02:53:50.439Z,24.10
2023-01-29T02:56:22.689Z,28.65
2023-01-29T02:58:55.288Z,26.17
2023-01-29T03:01:31.140Z,26.48
2023-01-29T03:04:03.484Z,27.38
2023-01-29T03:06:36.317Z,27.25
2023-01-29T03:09:08.936Z,27.55
2023-01-29T03:11:41.380Z,28.98
2023-01-29T03:14:14.381Z,28.35
2023-01-29T03:16:48.657Z,30.92
2023-01-29T03:19:20.360Z,29.95
2023-01-29T03:21:51.351Z,28.52
2023-01-29T03:24:39.754Z,28.23
2023-01-29T03:27:29.334Z,26.92
2023-01-29T03:30:17.446Z,31.42
2023-01-29T03:32:56.509Z,26.70
2023-01-29T03:35:35.437Z,25.55
2023-01-29T03:38:07.423Z,30.13
2023-01-29T03:40:41.255Z,30.25
2023-01-29T03:43:15.007Z,33.13
2023-01-29T03:45:55.357Z,30.77
2023-01-29T03:48:31.957Z,29.17
2023-01-29T03:51:09.027Z,32.97
2023-01-29T03:53:44.246Z,30.60
2023-01-29T03:56:22.046Z,31.40
2023-01-29T03:58:56.223Z,26.73
2023-01-29T04:01:34.564Z,30.52
2023-01-29T04:04:12.686Z,30.15
2023-01-29T04:06:45.047Z,29.95
2023-01-29T04:09:22.130Z,31.35
2023-01-29T04:11:54.265Z,29.73
2023-01-29T04:14:22.419Z,30.48
2023-01-29T04:16:55.332Z,29.30
2023-01-29T04:19:32.459Z,32.58
2023-01-29T04:22:06.350Z,30.17
2023-01-29T04:24:35.391Z,27.67
2023-01-29T04:27:22.332Z,30.17
2023-01-29T04:30:04.156Z,30.60
2023-01-29T04:32:50.289Z,30.30
2023-01-29T04:35:31.664Z,30.73
2023-01-29T04:38:10.166Z,33.33
2023-01-29T04:40:47.440Z,32.15
2023-01-29T04:45:54.375Z,27.95
2023-01-29T04:48:27.542Z,30.70
2023-01-29T04:51:03.185Z,30.42
2023-01-29T04:53:40.435Z,30.73
2023-01-29T04:58:44.585Z,28.33
2023-01-29T05:01:15.341Z,31.63
2023-01-29T05:03:47.846Z,31.80
2023-01-29T05:06:17.489Z,32.67
2023-01-29T05:08:45.918Z,33.38
2023-01-29T05:11:14.301Z,28.30
2023-01-29T05:13:44.102Z,31.15
2023-01-29T05:16:18.025Z,29.75
2023-01-29T05:18:46.120Z,31.63
2023-01-29T05:21:14.109Z,32.47
2023-01-29T05:23:53.091Z,32.00
2023-01-29T05:26:39.551Z,35.08
2023-01-29T05:29:07.378Z,31.55
2023-01-29T05:31:35.172Z,31.88
2023-01-29T05:34:02.964Z,34.08
2023-01-29T05:36:30.760Z,33.60
2023-01-29T05:38:59.969Z,32.60
2023-01-29T05:41:27.717Z,33.55
2023-01-29T05:43:55.493Z,31.20
2023-01-29T05:46:23.916Z,35.00
2023-01-29T05:48:53.345Z,33.83
2023-01-29T05:51:21.134Z,35.17
2023-01-29T05:53:48.917Z,30.73
2023-01-29T05:56:18.065Z,34.53
2023-01-29T05:58:45.949Z,33.67
2023-01-29T06:01:16.342Z,34.40
2023-01-29T06:03:44.444Z,34.83
2023-01-29T06:06:13.176Z,31.00
2023-01-29T06:08:40.996Z,33.85
2023-01-29T06:11:10.434Z,32.80
2023-01-29T06:13:40.035Z,31.17
2023-01-29T06:16:09.124Z,31.05
2023-01-29T06:18:37.840Z,32.67
2023-01-29T06:21:07.564Z,32.88
2023-01-29T06:23:35.380Z,32.45
2023-01-29T06:26:04.360Z,31.50
2023-01-29T06:28:32.245Z,31.48
2023-01-29T06:31:21.081Z,34.30
2023-01-29T06:33:50.566Z,34.00
2023-01-29T06:36:18.370Z,29.17
2023-01-29T06:38:47.211Z,30.42
2023-01-29T06:41:18.342Z,30.23
2023-01-29T06:43:46.518Z,26.13
2023-01-29T06:46:15.861Z,30.80
2023-01-29T06:48:43.850Z,30.50
2023-01-29T06:51:12.093Z,30.45
2023-01-29T06:53:40.960Z,30.58
2023-01-29T06:56:09.504Z,29.00
2023-01-29T06:58:38.080Z,29.30
2023-01-29T07:01:07.507Z,30.13
2023-01-29T07:03:36.904Z,29.23
2023-01-29T07:06:05.483Z,29.40
2023-01-29T07:08:33.242Z,32.03
2023-01-29T07:11:02.386Z,29.98
2023-01-29T07:13:30.524Z,33.13
2023-01-29T07:16:00.362Z,29.70
2023-01-29T07:18:28.234Z,28.73
2023-01-29T07:20:58.275Z,30.35
2023-01-29T07:23:26.252Z,28.50
2023-01-29T07:25:54.049Z,32.05
2023-01-29T07:28:21.970Z,28.85
2023-01-29T07:30:49.737Z,29.42
2023-01-29T07:33:17.503Z,28.05
2023-01-29T07:35:45.260Z,29.40
2023-01-29T07:38:14.551Z,29.63
2023-01-29T07:40:42.314Z,28.10
2023-01-29T07:43:11.548Z,32.28
2023-01-29T07:45:41.013Z,28.63
2023-01-29T07:48:12.699Z,29.48
2023-01-29T07:50:41.475Z,30.27
2023-01-29T07:53:15.832Z,30.85
2023-01-29T07:55:46.060Z,28.63
2023-01-29T07:58:14.054Z,31.25
2023-01-29T08:00:41.869Z,30.23
2023-01-29T08:03:13.211Z,29.95
2023-01-29T08:08:08.753Z,30.52
2023-01-29T08:10:39.160Z,28.42
2023-01-29T08:13:08.496Z,30.60
2023-01-29T08:15:38.772Z,30.30
2023-01-29T08:18:07.351Z,29.92
2023-01-29T08:20:35.258Z,30.88
2023-01-29T08:23:04.579Z,28.92
2023-01-29T08:25:32.826Z,29.00
2023-01-29T08:28:02.738Z,29.05
2023-01-29T08:30:32.658Z,29.90
2023-01-29T08:33:00.684Z,31.60
2023-01-29T08:35:28.588Z,30.25
2023-01-29T08:37:56.767Z,25.95
2023-01-29T08:40:24.694Z,26.67
2023-01-29T08:42:52.481Z,29.02
2023-01-29T08:45:21.878Z,29.23
2023-01-29T08:47:50.990Z,26.63
2023-01-29T08:50:19.724Z,28.70
2023-01-29T08:52:47.728Z,26.13
2023-01-29T08:55:15.912Z,27.55
2023-01-29T08:57:43.807Z,26.88
2023-01-29T09:00:12.779Z,27.48
2023-01-29T09:02:41.975Z,28.52
2023-01-29T09:05:11.156Z,26.80
2023-01-29T09:07:39.007Z,27.85
2023-01-29T09:10:08.104Z,28.30
2023-01-29T09:12:35.913Z,27.48
2023-01-29T09:15:03.933Z,28.05
2023-01-29T09:17:31.689Z,26.73
2023-01-29T09:20:00.818Z,28.30
2023-01-29T09:22:29.448Z,24.00
2023-01-29T09:24:57.217Z,26.20
2023-01-29T09:27:25.130Z,25.30
2023-01-29T09:29:52.934Z,27.70
2023-01-29T09:32:49.844Z,27.13
2023-01-29T09:35:10.614Z,28.90
2023-01-29T09:37:38.454Z,27.98
2023-01-29T09:40:07.515Z,25.73
2023-01-29T09:42:41.970Z,27.90
2023-01-29T09:45:16.728Z,30.25
2023-01-29T09:47:45.247Z,27.60
2023-01-29T09:50:20.689Z,29.90
2023-01-29T09:52:53.073Z,28.27
2023-01-29T09:55:23.896Z,32.00
2023-01-29T09:57:54.449Z,29.90
2023-01-29T10:00:25.774Z,28.15
2023-01-29T10:03:18.588Z,25.27
2023-01-29T10:05:58.446Z,28.45
2023-01-29T10:09:03.633Z,26.50
2023-01-29T10:11:43.466Z,26.75
2023-01-29T10:14:19.812Z,28.92
2023-01-29T10:17:04.155Z,27.00
2023-01-29T10:19:46.234Z,28.27
2023-01-29T10:22:41.934Z,28.92
2023-01-29T10:25:12.837Z,29.85
2023-01-29T10:27:44.474Z,28.08
2023-01-29T10:30:31.726Z,28.67
2023-01-29T10:33:03.389Z,28.90
2023-01-29T10:35:35.478Z,29.38
2023-01-29T10:38:24.706Z,27.23
2023-01-29T10:43:33.733Z,26.55
2023-01-29T10:46:11.941Z,27.20
2023-01-29T10:48:51.539Z,25.70
2023-01-29T10:51:32.714Z,30.00
2023-01-29T10:54:17.349Z,32.78
2023-01-29T10:56:58.602Z,30.25
2023-01-29T10:59:40.658Z,28.05
2023-01-29T11:02:18.231Z,29.15
2023-01-29T11:04:46.713Z,26.52
2023-01-29T11:07:17.905Z,29.48
2023-01-29T11:09:54.653Z,31.48
2023-01-29T11:12:27.237Z,29.67
2023-01-29T11:15:00.122Z,30.08
2023-01-29T11:17:28.440Z,31.67
2023-01-29T11:19:56.626Z,32.22
2023-01-29T11:22:25.315Z,30.92
2023-01-29T11:27:48.043Z,30.98
2023-01-29T11:30:20.764Z,31.35
2023-01-29T11:32:52.867Z,30.40
2023-01-29T11:35:26.110Z,35.92
2023-01-29T11:37:53.873Z,29.15
2023-01-29T11:40:37.627Z,33.55
2023-01-29T11:43:37.612Z,31.58
2023-01-29T11:46:08.061Z,33.30
2023-01-29T11:48:43.456Z,32.30
2023-01-29T11:51:13.567Z,34.10
2023-01-29T11:53:44.493Z,34.88
2023-01-29T11:56:23.434Z,32.75
2023-01-29T11:58:55.462Z,33.83
2023-01-29T12:01:33.240Z,33.50
2023-01-29T12:04:02.055Z,32.25
2023-01-29T12:06:35.231Z,34.13
2023-01-29T12:09:10.697Z,32.30
2023-01-29T12:11:38.556Z,36.58
2023-01-29T12:14:25.820Z,33.05
2023-01-29T12:16:57.662Z,35.47
2023-01-29T12:19:32.378Z,36.38
2023-01-29T12:22:05.479Z,35.30
2023-01-29T12:24:36.611Z,34.05
2023-01-29T12:27:13.923Z,35.72
2023-01-29T12:32:27.599Z,35.00
2023-01-29T12:35:02.840Z,33.47
2023-01-29T12:37:46.169Z,36.03
2023-01-29T12:40:16.366Z,32.97
2023-01-29T12:42:49.023Z,31.10
2023-01-29T12:45:21.892Z,32.53
2023-01-29T12:47:52.939Z,33.15
2023-01-29T12:50:25.100Z,36.25
2023-01-29T12:52:57.347Z,33.42
2023-01-29T12:55:29.025Z,32.47
2023-01-29T12:57:59.573Z,35.80
2023-01-29T13:00:33.212Z,34.95
2023-01-29T13:03:08.085Z,34.78
2023-01-29T13:05:44.194Z,36.65
2023-01-29T13:08:18.586Z,35.40
2023-01-29T13:10:50.524Z,31.00
2023-01-29T13:13:27.631Z,35.38
2023-01-29T13:15:59.994Z,34.85
2023-01-29T13:18:44.899Z,35.75
2023-01-29T13:21:16.317Z,35.90
2023-01-29T13:23:47.995Z,38.30
2023-01-29T13:26:19.750Z,36.03
2023-01-29T13:28:48.443Z,34.22
2023-01-29T13:31:28.298Z,37.92
2023-01-29T13:34:03.697Z,41.33
2023-01-29T13:36:32.721Z,34.90
2023-01-29T13:39:04.444Z,37.63
2023-01-29T13:41:35.645Z,37.85
2023-01-29T13:44:04.226Z,35.13
2023-01-29T13:46:33.767Z,36.22
2023-01-29T13:49:04.940Z,26.00
2023-01-29T13:51:37.373Z,37.53
2023-01-29T13:54:09.759Z,31.35
2023-01-29T13:56:48.970Z,34.80
2023-01-29T13:59:25.721Z,32.40
2023-01-29T14:02:21.808Z,31.95
2023-01-29T14:04:49.676Z,34.17
2023-01-29T14:07:41.121Z,33.22
2023-01-29T14:10:18.155Z,31.80
2023-01-29T14:12:51.847Z,31.95
2023-01-29T14:15:23.346Z,33.67
2023-01-29T14:18:15.776Z,30.70
2023-01-29T14:20:54.085Z,33.83
2023-01-29T14:23:29.951Z,31.95
2023-01-29T14:25:59.747Z,30.73
2023-01-29T14:28:30.651Z,30.55
2023-01-29T14:30:58.888Z,31.98
2023-01-29T14:33:34.213Z,34.15
2023-01-29T14:36:06.457Z,33.42
2023-01-29T14:38:35.318Z,32.35
2023-01-29T14:41:13.826Z,34.55
2023-01-29T14:43:41.641Z,32.17
2023-01-29T14:46:43.442Z,30.08
2023-01-29T14:49:12.834Z,35.42
2023-01-29T14:51:45.371Z,27.15
2023-01-29T14:54:24.147Z,33.33
2023-01-29T14:56:59.489Z,32.10
2023-01-29T14:59:33.433Z,33.03
2023-01-29T15:02:06.266Z,29.60
2023-01-29T15:04:45.302Z,28.50
2023-01-29T15:07:24.227Z,30.27
2023-01-29T15:10:07.910Z,25.17
2023-01-29T15:12:49.467Z,28.35
2023-01-29T15:15:22.631Z,35.30
2023-01-29T15:17:58.237Z,27.35
2023-01-29T15:20:33.269Z,26.23
2023-01-29T15:23:03.133Z,33.45
2023-01-29T15:25:36.927Z,30.70
2023-01-29T15:28:10.166Z,30.67
2023-01-29T15:30:38.984Z,27.98
2023-01-29T15:33:10.600Z,30.92
2023-01-29T15:35:41.607Z,30.80
2023-01-29T15:38:17.553Z,32.92
2023-01-29T15:40:53.772Z,31.33
2023-01-29T15:43:24.047Z,31.63
2023-01-29T15:45:53.069Z,30.05
2023-01-29T15:48:24.555Z,30.60
2023-01-29T15:50:55.695Z,29.38
2023-01-29T15:53:29.904Z,29.65
2023-01-29T15:56:00.020Z,28.70
2023-01-29T15:58:31.800Z,24.73
2023-01-29T16:01:02.337Z,35.78
2023-01-29T16:03:34.306Z,29.35
2023-01-29T16:06:03.839Z,27.35
2023-01-29T16:08:31.759Z,35.72
2023-01-29T16:11:01.434Z,30.20
2023-01-29T16:13:32.666Z,30.67
2023-01-29T16:16:02.007Z,31.75
2023-01-29T16:18:34.538Z,34.78
2023-01-29T16:21:09.012Z,32.22
2023-01-29T16:23:45.162Z,31.05
2023-01-29T16:26:17.832Z,29.95
2023-01-29T16:28:47.179Z,31.75
2023-01-29T16:31:23.295Z,28.38
2023-01-29T16:33:51.217Z,32.15
2023-01-29T16:36:23.874Z,30.55
2023-01-29T16:38:55.689Z,30.45
2023-01-29T16:41:32.013Z,28.45
2023-01-29T16:44:02.803Z,30.63
2023-01-29T16:46:36.335Z,28.92
2023-01-29T16:49:26.017Z,31.17
2023-01-29T16:51:56.412Z,36.60
2023-01-29T16:54:27.684Z,32.42
2023-01-29T16:57:00.105Z,35.63
2023-01-29T16:59:34.834Z,34.88
2023-01-29T17:02:03.523Z,35.25
2023-01-29T17:04:31.412Z,30.85
2023-01-29T17:07:03.456Z,37.40
2023-01-29T17:09:34.959Z,34.42
2023-01-29T17:12:06.085Z,32.60
2023-01-29T17:14:35.931Z,29.55
2023-01-29T17:17:06.105Z,31.13
2023-01-29T17:19:34.101Z,38.85
2023-01-29T17:22:07.693Z,36.20
2023-01-29T17:24:35.617Z,33.63
2023-01-29T17:27:03.436Z,36.67
2023-01-29T17:29:32.657Z,42.95
2023-01-29T17:32:00.557Z,41.03
2023-01-29T17:34:28.442Z,33.45
2023-01-29T17:36:57.217Z,39.13
2023-01-29T17:39:26.655Z,33.22
2023-01-29T17:41:56.430Z,37.92
2023-01-29T17:44:26.072Z,37.00
2023-01-29T17:46:53.955Z,33.75
2023-01-29T17:49:24.388Z,36.80
2023-01-29T17:51:52.993Z,36.45
2023-01-29T17:54:21.084Z,28.38
2023-01-29T17:56:51.236Z,40.75
2023-01-29T17:59:20.920Z,38.65
2023-01-29T18:01:49.345Z,33.53
2023-01-29T18:04:17.517Z,34.63
2023-01-29T18:06:48.569Z,35.33
2023-01-29T18:09:18.806Z,36.92
2023-01-29T18:11:46.658Z,33.72
2023-01-29T18:14:15.939Z,38.00
2023-01-29T18:16:44.883Z,38.03
2023-01-29T18:19:15.827Z,34.30
2023-01-29T18:21:43.624Z,38.70
2023-01-29T18:24:11.417Z,40.65
2023-01-29T18:26:39.245Z,35.22
2023-01-29T18:29:07.100Z,39.22
2023-01-29T18:31:36.361Z,39.08
2023-01-29T18:34:04.205Z,38.42
2023-01-29T18:36:32.032Z,34.78
2023-01-29T18:38:59.873Z,31.95
2023-01-29T18:41:27.621Z,40.53
2023-01-29T18:43:55.381Z,37.25
2023-01-29T18:46:24.311Z,29.65
2023-01-29T18:48:53.570Z,39.08
2023-01-29T18:51:21.392Z,37.22
2023-01-29T18:53:51.745Z,37.47
2023-01-29T18:56:20.329Z,36.83
2023-01-29T18:58:52.439Z,40.22
2023-01-29T19:01:20.954Z,37.80
2023-01-29T19:03:48.822Z,37.05
2023-01-29T19:06:17.926Z,35.95
2023-01-29T19:08:47.319Z,35.00
2023-01-29T19:11:15.204Z,32.92
2023-01-29T19:13:43.100Z,34.72
2023-01-29T19:16:12.645Z,35.05
2023-01-29T19:18:40.757Z,37.42
2023-01-29T19:21:10.743Z,35.35
2023-01-29T19:23:40.696Z,34.20
2023-01-29T19:26:08.949Z,33.55
2023-01-29T19:28:37.135Z,38.00
2023-01-29T19:31:05.256Z,37.65
2023-01-29T19:33:33.134Z,35.22
2023-01-29T19:36:01.132Z,34.75
2023-01-29T19:38:33.287Z,36.95
2023-01-29T19:41:02.407Z,36.28
2023-01-29T19:43:31.490Z,36.45
2023-01-29T19:46:00.346Z,37.80
2023-01-29T19:48:28.351Z,39.78
2023-01-29T19:50:57.279Z,34.80
2023-01-29T19:53:25.617Z,35.47
2023-01-29T19:56:00.740Z,32.80
2023-01-29T19:58:30.935Z,39.28
2023-01-29T20:00:59.814Z,34.17
2023-01-29T20:03:28.904Z,36.00
2023-01-29T20:05:57.560Z,38.38
2023-01-29T20:08:25.435Z,35.95
2023-01-29T20:10:53.274Z,36.63
2023-01-29T20:13:21.311Z,35.42
2023-01-29T20:15:51.768Z,35.97
2023-01-29T20:18:20.352Z,36.80
2023-01-29T20:20:49.882Z,37.95
2023-01-29T20:23:35.238Z,36.22
2023-01-29T20:26:06.774Z,40.00
2023-01-29T20:28:36.660Z,39.30
2023-01-29T20:31:07.916Z,38.83
2023-01-29T20:33:38.268Z,37.97
2023-01-29T20:36:09.996Z,32.65
2023-01-29T20:38:38.252Z,37.50
2023-01-29T20:41:07.834Z,37.17
2023-01-29T20:43:36.217Z,37.83
2023-01-29T20:46:05.933Z,38.05
2023-01-29T20:48:34.321Z,36.38
2023-01-29T20:51:10.365Z,32.92
2023-01-29T20:53:38.656Z,40.67
2023-01-29T20:56:07.627Z,41.33
2023-01-29T20:58:35.579Z,39.95
2023-01-29T21:01:10.396Z,43.20
2023-01-29T21:03:38.759Z,37.15
2023-01-29T21:06:07.393Z,40.45
2023-01-29T21:08:35.370Z,36.80
2023-01-29T21:11:03.198Z,44.63
2023-01-29T21:13:31.060Z,35.83
2023-01-29T21:15:58.965Z,41.63
2023-01-29T21:18:28.165Z,42.17
2023-01-29T21:20:56.129Z,40.47
2023-01-29T21:23:23.991Z,37.67
2023-01-29T21:25:51.799Z,40.70
2023-01-29T21:28:19.597Z,42.55
2023-01-29T21:30:47.917Z,38.63
2023-01-29T21:33:15.790Z,42.50
2023-01-29T21:35:44.957Z,38.28
2023-01-29T21:38:12.741Z,39.97
2023-01-29T21:40:40.555Z,38.35
2023-01-29T21:43:13.416Z,39.42
2023-01-29T21:45:41.703Z,39.97
2023-01-29T21:48:12.390Z,35.80
2023-01-29T21:50:40.277Z,37.38
2023-01-29T21:53:09.432Z,35.70
2023-01-29T21:55:37.220Z,32.92
2023-01-29T21:58:05.002Z,34.58
2023-01-29T22:00:32.827Z,41.35
2023-01-29T22:03:00.729Z,35.70
2023-01-29T22:05:29.218Z,41.72
2023-01-29T22:07:57.229Z,41.08
2023-01-29T22:10:27.437Z,38.35
2023-01-29T22:12:55.453Z,36.83
2023-01-29T22:15:24.245Z,38.92
2023-01-29T22:17:52.261Z,37.22
2023-01-29T22:20:20.776Z,35.33
2023-01-29T22:22:48.645Z,38.72
2023-01-29T22:25:19.918Z,38.42
2023-01-29T22:30:17.515Z,35.08
2023-01-29T22:32:45.433Z,35.03
2023-01-29T22:35:13.251Z,37.42
2023-01-29T22:37:41.012Z,42.00
2023-01-29T22:40:10.113Z,39.50
2023-01-29T22:42:37.844Z,40.60
2023-01-29T22:45:08.904Z,37.42
2023-01-29T22:47:36.668Z,33.47
2023-01-29T22:50:05.150Z,37.65
2023-01-29T22:52:38.577Z,39.00
2023-01-29T22:55:09.422Z,38.05
2023-01-29T22:57:37.700Z,36.60
2023-01-29T23:00:11.462Z,40.42
2023-01-29T23:02:39.313Z,34.47
2023-01-29T23:05:08.094Z,40.47
2023-01-29T23:07:35.851Z,36.05
2023-01-29T23:10:03.672Z,37.08
2023-01-29T23:12:31.481Z,35.95
2023-01-29T23:14:59.321Z,40.30
2023-01-29T23:17:28.484Z,38.78
2023-01-29T23:19:56.311Z,38.72
2023-01-29T23:22:24.105Z,38.53
2023-01-29T23:24:52.007Z,40.80
2023-01-29T23:27:18.847Z,40.53
2023-01-29T23:29:48.668Z,36.85
2023-01-29T23:32:18.192Z,37.45
2023-01-29T23:34:47.488Z,37.78
2023-01-29T23:37:15.374Z,34.65
2023-01-29T23:39:43.198Z,35.80
2023-01-29T23:42:11.008Z,37.78
2023-01-29T23:44:40.191Z,35.97
2023-01-29T23:47:08.223Z,37.47
2023-01-29T23:49:36.346Z,34.78
2023-01-29T23:52:05.730Z,33.65
2023-01-29T23:54:33.539Z,37.13
2023-01-29T23:57:01.323Z,33.67
2023-01-29T23:59:29.231Z,30.83
